createdAt,value
2022-08-28T00:18:09.672Z,7.16
2022-08-28T00:38:15.909Z,7.83
2022-08-28T00:58:22.157Z,7.22
2022-08-28T01:18:27.986Z,8.23
2022-08-28T01:38:33.776Z,9.40
2022-08-28T01:58:39.579Z,9.27
2022-08-28T02:18:45.336Z,9.95
2022-08-28T02:38:56.863Z,8.51
2022-08-28T03:01:25.023Z,10.52
2022-08-28T03:19:01.233Z,8.56
2022-08-28T03:39:07.034Z,10.22
2022-08-28T03:59:12.859Z,9.88
2022-08-28T04:19:19.109Z,11.21
2022-08-28T04:39:24.922Z,10.85
2022-08-28T04:59:30.772Z,10.87
2022-08-28T05:19:36.573Z,10.72
2022-08-28T05:39:42.813Z,12.72
2022-08-28T05:59:48.585Z,10.18
2022-08-28T06:19:54.367Z,10.20
2022-08-28T06:40:00.289Z,11.62
2022-08-28T07:00:06.516Z,9.53
2022-08-28T07:20:12.820Z,9.46
2022-08-28T07:40:19.121Z,7.82
2022-08-28T08:00:25.310Z,5.94
2022-08-28T08:20:31.573Z,6.93
2022-08-28T08:40:37.937Z,6.00
2022-08-28T09:00:44.093Z,5.21
2022-08-28T09:20:50.379Z,6.35
2022-08-28T09:40:56.657Z,4.86
2022-08-28T10:01:02.932Z,4.99
2022-08-28T10:21:08.752Z,5.02
2022-08-28T10:41:15.033Z,4.76
2022-08-28T11:01:21.447Z,4.59
2022-08-28T11:21:27.625Z,5.32
2022-08-28T11:41:33.849Z,3.34
2022-08-28T12:01:40.185Z,4.32
2022-08-28T12:21:46.432Z,3.50
2022-08-28T12:41:52.701Z,3.53
2022-08-28T13:01:59.119Z,4.82
2022-08-28T13:22:04.817Z,4.40
2022-08-28T13:42:11.093Z,4.65
2022-08-28T14:02:17.421Z,3.34
2022-08-28T14:22:23.701Z,4.43
2022-08-28T14:42:29.982Z,3.94
2022-08-28T15:02:36.175Z,3.82
2022-08-28T15:22:42.480Z,3.98
2022-08-28T15:42:48.280Z,3.04
2022-08-28T16:02:54.561Z,3.90
2022-08-28T16:23:00.876Z,3.73
2022-08-28T16:43:07.110Z,3.80
2022-08-28T17:03:13.419Z,4.23
2022-08-28T17:23:19.633Z,3.72
2022-08-28T17:43:25.989Z,3.18
2022-08-28T18:03:33.175Z,3.61
2022-08-28T18:23:38.989Z,4.58
2022-08-28T18:43:45.207Z,3.17
2022-08-28T19:03:51.532Z,3.81
2022-08-28T19:23:57.812Z,4.52
2022-08-28T19:44:09.122Z,4.42
2022-08-28T20:04:04.429Z,4.92
2022-08-28T20:24:10.824Z,5.76
2022-08-28T20:44:17.805Z,5.19
2022-08-28T21:04:28.466Z,4.54
2022-08-28T21:24:33.355Z,5.11
2022-08-28T21:44:39.164Z,5.30
2022-08-28T22:04:45.486Z,5.56
2022-08-28T22:24:51.756Z,6.33
2022-08-28T22:44:58.052Z,7.15
2022-08-28T23:05:03.820Z,7.18
2022-08-28T23:25:09.709Z,7.64
